sensor_id;sensor_type;location;lat;lon;timestamp;pressure;altitude;pressure_sealevel;temperature;humidity
9969;BME280;5025;48.890;9.278;2023-05-10T00:01:49;98135.50;;;15.03;96.09
9969;BME280;5025;48.890;9.278;2023-05-10T00:04:15;98144.22;;;14.90;97.51
9969;BME280;5025;48.890;9.278;2023-05-10T00:06:40;98142.59;;;14.78;97.97
9969;BME280;5025;48.890;9.278;2023-05-10T00:09:06;98150.75;;;14.63;98.41
9969;BME280;5025;48.890;9.278;2023-05-10T00:11:31;98147.72;;;14.44;99.04
9969;BME280;5025;48.890;9.278;2023-05-10T00:13:57;98156.38;;;14.25;99.17
9969;BME280;5025;48.890;9.278;2023-05-10T00:16:22;98151.97;;;14.14;99.72
9969;BME280;5025;48.890;9.278;2023-05-10T00:18:47;98153.03;;;14.03;99.90
9969;BME280;5025;48.890;9.278;2023-05-10T00:21:13;98153.25;;;13.86;99.58
9969;BME280;5025;48.890;9.278;2023-05-10T00:23:38;98149.41;;;13.76;99.27
9969;BME280;5025;48.890;9.278;2023-05-10T00:26:03;98152.66;;;13.73;98.76
9969;BME280;5025;48.890;9.278;2023-05-10T00:28:29;98149.13;;;13.73;98.62
9969;BME280;5025;48.890;9.278;2023-05-10T00:30:54;98157.22;;;13.62;97.85
9969;BME280;5025;48.890;9.278;2023-05-10T00:33:20;98151.53;;;13.59;97.80
9969;BME280;5025;48.890;9.278;2023-05-10T00:35:45;98144.44;;;13.53;97.22
9969;BME280;5025;48.890;9.278;2023-05-10T00:38:11;98149.28;;;13.51;97.79
9969;BME280;5025;48.890;9.278;2023-05-10T00:40:36;98156.28;;;13.41;98.14
9969;BME280;5025;48.890;9.278;2023-05-10T00:43:05;98155.81;;;13.50;98.73
9969;BME280;5025;48.890;9.278;2023-05-10T00:45:34;98152.00;;;13.51;98.71
9969;BME280;5025;48.890;9.278;2023-05-10T00:48:02;98150.38;;;13.50;98.57
9969;BME280;5025;48.890;9.278;2023-05-10T00:50:27;98163.63;;;13.41;99.00
9969;BME280;5025;48.890;9.278;2023-05-10T00:52:53;98153.81;;;13.35;99.30
9969;BME280;5025;48.890;9.278;2023-05-10T00:55:18;98159.72;;;13.32;99.26
9969;BME280;5025;48.890;9.278;2023-05-10T00:57:44;98164.78;;;13.13;99.68
9969;BME280;5025;48.890;9.278;2023-05-10T01:00:09;98165.81;;;13.06;100.00
9969;BME280;5025;48.890;9.278;2023-05-10T01:02:36;98167.66;;;13.01;100.00
9969;BME280;5025;48.890;9.278;2023-05-10T01:05:02;98182.56;;;12.98;100.00
9969;BME280;5025;48.890;9.278;2023-05-10T01:07:28;98179.91;;;13.08;100.00
9969;BME280;5025;48.890;9.278;2023-05-10T01:09:54;98179.63;;;13.05;100.00
9969;BME280;5025;48.890;9.278;2023-05-10T01:12:19;98178.59;;;13.11;100.00
9969;BME280;5025;48.890;9.278;2023-05-10T01:14:45;98176.41;;;13.08;100.00
9969;BME280;5025;48.890;9.278;2023-05-10T01:17:11;98175.00;;;13.00;100.00
9969;BME280;5025;48.890;9.278;2023-05-10T01:19:37;98179.78;;;12.93;100.00
9969;BME280;5025;48.890;9.278;2023-05-10T01:29:56;98178.56;;;13.06;100.00
9969;BME280;5025;48.890;9.278;2023-05-10T01:35:19;98179.41;;;12.79;100.00
9969;BME280;5025;48.890;9.278;2023-05-10T01:37:54;98189.03;;;12.92;100.00
9969;BME280;5025;48.890;9.278;2023-05-10T01:40:30;98193.41;;;12.98;100.00
9969;BME280;5025;48.890;9.278;2023-05-10T01:43:02;98180.94;;;12.97;99.96
9969;BME280;5025;48.890;9.278;2023-05-10T01:45:41;98193.09;;;12.95;99.30
9969;BME280;5025;48.890;9.278;2023-05-10T01:48:11;98194.97;;;12.89;99.70
9969;BME280;5025;48.890;9.278;2023-05-10T01:50:40;98194.72;;;12.96;99.57
9969;BME280;5025;48.890;9.278;2023-05-10T01:53:09;98195.25;;;12.93;99.49
9969;BME280;5025;48.890;9.278;2023-05-10T01:55:46;98202.19;;;13.11;99.52
9969;BME280;5025;48.890;9.278;2023-05-10T01:58:28;98203.22;;;13.04;99.06
9969;BME280;5025;48.890;9.278;2023-05-10T02:00:55;98203.25;;;13.09;99.13
9969;BME280;5025;48.890;9.278;2023-05-10T02:03:24;98214.09;;;13.09;98.84
9969;BME280;5025;48.890;9.278;2023-05-10T02:05:51;98210.56;;;13.09;99.04
9969;BME280;5025;48.890;9.278;2023-05-10T02:08:18;98204.28;;;13.03;99.17
9969;BME280;5025;48.890;9.278;2023-05-10T02:10:46;98221.16;;;13.11;99.02
9969;BME280;5025;48.890;9.278;2023-05-10T02:13:13;98224.91;;;13.04;98.94
9969;BME280;5025;48.890;9.278;2023-05-10T02:15:41;98215.34;;;12.97;99.08
9969;BME280;5025;48.890;9.278;2023-05-10T02:18:08;98209.88;;;12.91;99.47
9969;BME280;5025;48.890;9.278;2023-05-10T02:20:34;98212.94;;;13.00;99.25
9969;BME280;5025;48.890;9.278;2023-05-10T02:23:02;98219.16;;;13.01;99.37
9969;BME280;5025;48.890;9.278;2023-05-10T02:25:28;98212.94;;;13.00;99.15
9969;BME280;5025;48.890;9.278;2023-05-10T02:27:55;98215.41;;;13.07;98.96
9969;BME280;5025;48.890;9.278;2023-05-10T02:30:22;98217.66;;;13.15;98.50
9969;BME280;5025;48.890;9.278;2023-05-10T02:32:49;98221.75;;;13.23;98.22
9969;BME280;5025;48.890;9.278;2023-05-10T02:35:16;98220.97;;;13.22;97.86
9969;BME280;5025;48.890;9.278;2023-05-10T02:37:41;98227.44;;;13.21;97.67
9969;BME280;5025;48.890;9.278;2023-05-10T02:40:10;98221.25;;;13.26;97.48
9969;BME280;5025;48.890;9.278;2023-05-10T02:42:37;98235.47;;;13.38;97.40
9969;BME280;5025;48.890;9.278;2023-05-10T02:45:17;98233.28;;;13.35;96.94
9969;BME280;5025;48.890;9.278;2023-05-10T02:47:42;98235.19;;;13.35;96.80
9969;BME280;5025;48.890;9.278;2023-05-10T02:50:09;98244.19;;;13.40;96.68
9969;BME280;5025;48.890;9.278;2023-05-10T02:52:44;98250.69;;;13.44;96.30
9969;BME280;5025;48.890;9.278;2023-05-10T02:55:14;98239.59;;;13.46;96.38
9969;BME280;5025;48.890;9.278;2023-05-10T02:57:49;98239.84;;;13.44;96.13
9969;BME280;5025;48.890;9.278;2023-05-10T03:00:15;98247.72;;;13.46;96.38
9969;BME280;5025;48.890;9.278;2023-05-10T03:02:41;98235.81;;;13.47;96.21
9969;BME280;5025;48.890;9.278;2023-05-10T03:05:06;98241.00;;;13.54;95.97
9969;BME280;5025;48.890;9.278;2023-05-10T03:07:32;98239.94;;;13.55;95.74
9969;BME280;5025;48.890;9.278;2023-05-10T03:09:58;98238.88;;;13.61;95.58
9969;BME280;5025;48.890;9.278;2023-05-10T03:12:31;98238.88;;;13.61;95.44
9969;BME280;5025;48.890;9.278;2023-05-10T03:15:11;98248.13;;;13.65;95.14
9969;BME280;5025;48.890;9.278;2023-05-10T03:17:48;98250.88;;;13.70;95.24
9969;BME280;5025;48.890;9.278;2023-05-10T03:20:22;98252.78;;;13.70;95.19
9969;BME280;5025;48.890;9.278;2023-05-10T03:23:01;98253.84;;;13.69;95.03
9969;BME280;5025;48.890;9.278;2023-05-10T03:25:27;98250.00;;;13.65;95.08
9969;BME280;5025;48.890;9.278;2023-05-10T03:27:56;98257.34;;;13.64;95.11
9969;BME280;5025;48.890;9.278;2023-05-10T03:30:22;98253.00;;;13.63;95.09
9969;BME280;5025;48.890;9.278;2023-05-10T03:32:47;98250.53;;;13.61;95.23
9969;BME280;5025;48.890;9.278;2023-05-10T03:35:13;98255.16;;;13.61;95.05
9969;BME280;5025;48.890;9.278;2023-05-10T03:37:39;98253.78;;;13.58;95.00
9969;BME280;5025;48.890;9.278;2023-05-10T03:40:05;98259.44;;;13.52;95.15
9969;BME280;5025;48.890;9.278;2023-05-10T03:42:31;98259.69;;;13.50;95.43
9969;BME280;5025;48.890;9.278;2023-05-10T03:44:56;98258.31;;;13.48;95.23
9969;BME280;5025;48.890;9.278;2023-05-10T03:47:21;98256.72;;;13.52;95.21
9969;BME280;5025;48.890;9.278;2023-05-10T03:49:47;98260.81;;;13.54;94.97
9969;BME280;5025;48.890;9.278;2023-05-10T03:52:12;98256.75;;;13.57;95.12
9969;BME280;5025;48.890;9.278;2023-05-10T03:54:37;98259.97;;;13.54;94.95
9969;BME280;5025;48.890;9.278;2023-05-10T03:57:03;98254.53;;;13.49;95.10
9969;BME280;5025;48.890;9.278;2023-05-10T03:59:28;98252.38;;;13.51;95.04
9969;BME280;5025;48.890;9.278;2023-05-10T04:01:54;98262.13;;;13.47;94.72
9969;BME280;5025;48.890;9.278;2023-05-10T04:04:19;98252.88;;;13.42;95.06
9969;BME280;5025;48.890;9.278;2023-05-10T04:06:46;98253.94;;;13.41;95.17
9969;BME280;5025;48.890;9.278;2023-05-10T04:09:11;98259.34;;;13.41;95.40
9969;BME280;5025;48.890;9.278;2023-05-10T04:11:36;98261.50;;;13.34;95.62
9969;BME280;5025;48.890;9.278;2023-05-10T04:14:02;98269.66;;;13.39;95.19
9969;BME280;5025;48.890;9.278;2023-05-10T04:16:27;98270.16;;;13.36;95.52
9969;BME280;5025;48.890;9.278;2023-05-10T04:18:52;98264.19;;;13.34;95.86
9969;BME280;5025;48.890;9.278;2023-05-10T04:21:17;98269.38;;;13.36;95.84
9969;BME280;5025;48.890;9.278;2023-05-10T04:23:43;98259.59;;;13.40;95.60
9969;BME280;5025;48.890;9.278;2023-05-10T04:26:08;98269.66;;;13.39;95.55
9969;BME280;5025;48.890;9.278;2023-05-10T04:28:33;98260.44;;;13.40;95.77
9969;BME280;5025;48.890;9.278;2023-05-10T04:31:06;98271.06;;;13.47;95.65
9969;BME280;5025;48.890;9.278;2023-05-10T04:33:32;98267.56;;;13.52;95.48
9969;BME280;5025;48.890;9.278;2023-05-10T04:35:58;98263.28;;;13.56;95.33
9969;BME280;5025;48.890;9.278;2023-05-10T04:38:23;98265.72;;;13.57;95.26
9969;BME280;5025;48.890;9.278;2023-05-10T04:40:48;98274.41;;;13.59;95.25
9969;BME280;5025;48.890;9.278;2023-05-10T04:43:14;98278.75;;;13.60;95.06
9969;BME280;5025;48.890;9.278;2023-05-10T04:45:39;98277.09;;;13.54;95.39
9969;BME280;5025;48.890;9.278;2023-05-10T04:48:04;98284.97;;;13.56;95.41
9969;BME280;5025;48.890;9.278;2023-05-10T04:50:30;98285.25;;;13.59;95.40
9969;BME280;5025;48.890;9.278;2023-05-10T04:52:55;98284.44;;;13.59;95.30
9969;BME280;5025;48.890;9.278;2023-05-10T04:55:20;98293.63;;;13.53;95.56
9969;BME280;5025;48.890;9.278;2023-05-10T04:57:46;98293.88;;;13.51;95.81
9969;BME280;5025;48.890;9.278;2023-05-10T05:00:11;98294.66;;;13.47;96.00
9969;BME280;5025;48.890;9.278;2023-05-10T05:02:37;98299.00;;;13.48;96.12
9969;BME280;5025;48.890;9.278;2023-05-10T05:05:02;98300.94;;;13.52;95.89
9969;BME280;5025;48.890;9.278;2023-05-10T05:07:27;98293.06;;;13.51;96.25
9969;BME280;5025;48.890;9.278;2023-05-10T05:09:53;98294.94;;;13.45;95.82
9969;BME280;5025;48.890;9.278;2023-05-10T05:12:18;98296.00;;;13.44;96.06
9969;BME280;5025;48.890;9.278;2023-05-10T05:14:43;98300.63;;;13.43;95.88
9969;BME280;5025;48.890;9.278;2023-05-10T05:17:08;98298.69;;;13.39;95.62
9969;BME280;5025;48.890;9.278;2023-05-10T05:19:34;98308.13;;;13.36;95.16
9969;BME280;5025;48.890;9.278;2023-05-10T05:21:59;98302.16;;;13.34;95.16
9969;BME280;5025;48.890;9.278;2023-05-10T05:24:24;98303.72;;;13.30;95.20
9969;BME280;5025;48.890;9.278;2023-05-10T05:26:49;98312.91;;;13.29;94.93
9969;BME280;5025;48.890;9.278;2023-05-10T05:29:15;98313.94;;;13.23;95.31
9969;BME280;5025;48.890;9.278;2023-05-10T05:31:40;98315.84;;;13.22;95.24
9969;BME280;5025;48.890;9.278;2023-05-10T05:34:05;98324.78;;;13.23;95.34
9969;BME280;5025;48.890;9.278;2023-05-10T05:36:30;98322.16;;;13.28;95.27
9969;BME280;5025;48.890;9.278;2023-05-10T05:38:57;98321.31;;;13.27;95.32
9969;BME280;5025;48.890;9.278;2023-05-10T05:41:22;98314.00;;;13.28;95.34
9969;BME280;5025;48.890;9.278;2023-05-10T05:43:48;98314.88;;;13.34;95.51
9969;BME280;5025;48.890;9.278;2023-05-10T05:46:14;98322.31;;;13.43;95.01
9969;BME280;5025;48.890;9.278;2023-05-10T05:48:39;98317.44;;;13.45;95.08
9969;BME280;5025;48.890;9.278;2023-05-10T05:51:04;98317.69;;;13.44;95.23
9969;BME280;5025;48.890;9.278;2023-05-10T05:53:30;98320.78;;;13.58;95.10
9969;BME280;5025;48.890;9.278;2023-05-10T05:55:57;98328.44;;;13.66;94.49
9969;BME280;5025;48.890;9.278;2023-05-10T05:58:23;98325.78;;;13.71;94.26
9969;BME280;5025;48.890;9.278;2023-05-10T06:00:48;98326.03;;;13.70;94.37
9969;BME280;5025;48.890;9.278;2023-05-10T06:03:14;98333.31;;;13.64;94.49
9969;BME280;5025;48.890;9.278;2023-05-10T06:05:39;98329.19;;;13.56;94.75
9969;BME280;5025;48.890;9.278;2023-05-10T06:08:04;98323.25;;;13.59;95.05
9969;BME280;5025;48.890;9.278;2023-05-10T06:10:30;98336.00;;;13.59;95.08
9969;BME280;5025;48.890;9.278;2023-05-10T06:12:55;98332.72;;;13.57;95.17
9969;BME280;5025;48.890;9.278;2023-05-10T06:15:21;98338.88;;;13.47;94.20
9969;BME280;5025;48.890;9.278;2023-05-10T06:17:46;98324.50;;;13.47;93.49
9969;BME280;5025;48.890;9.278;2023-05-10T06:20:14;98329.41;;;13.50;93.76
9969;BME280;5025;48.890;9.278;2023-05-10T06:22:39;98341.84;;;13.45;94.25
9969;BME280;5025;48.890;9.278;2023-05-10T06:25:05;98344.84;;;13.49;94.53
9969;BME280;5025;48.890;9.278;2023-05-10T06:27:30;98347.78;;;13.42;94.13
9969;BME280;5025;48.890;9.278;2023-05-10T06:29:55;98348.03;;;13.41;94.12
9969;BME280;5025;48.890;9.278;2023-05-10T06:32:21;98350.03;;;13.51;93.82
9969;BME280;5025;48.890;9.278;2023-05-10T06:34:46;98356.81;;;13.48;93.22
9969;BME280;5025;48.890;9.278;2023-05-10T06:37:11;98353.34;;;13.58;93.29
9969;BME280;5025;48.890;9.278;2023-05-10T06:39:36;98357.25;;;13.72;93.03
9969;BME280;5025;48.890;9.278;2023-05-10T06:42:02;98352.97;;;13.81;92.67
9969;BME280;5025;48.890;9.278;2023-05-10T06:44:27;98358.09;;;13.73;92.42
9969;BME280;5025;48.890;9.278;2023-05-10T06:46:52;98357.72;;;13.64;91.80
9969;BME280;5025;48.890;9.278;2023-05-10T06:49:20;98355.03;;;13.64;92.01
9969;BME280;5025;48.890;9.278;2023-05-10T06:51:45;98350.19;;;13.71;92.39
9969;BME280;5025;48.890;9.278;2023-05-10T06:54:10;98354.00;;;13.75;92.43
9969;BME280;5025;48.890;9.278;2023-05-10T06:56:36;98348.59;;;13.75;91.96
9969;BME280;5025;48.890;9.278;2023-05-10T06:59:01;98361.09;;;13.76;90.96
9969;BME280;5025;48.890;9.278;2023-05-10T07:01:26;98355.66;;;13.76;90.98
9969;BME280;5025;48.890;9.278;2023-05-10T07:03:51;98359.25;;;13.82;90.69
9969;BME280;5025;48.890;9.278;2023-05-10T07:06:17;98356.28;;;13.89;90.96
9969;BME280;5025;48.890;9.278;2023-05-10T07:08:42;98353.88;;;13.92;90.66
9969;BME280;5025;48.890;9.278;2023-05-10T07:11:07;98357.69;;;13.91;90.44
9969;BME280;5025;48.890;9.278;2023-05-10T07:13:33;98361.72;;;13.89;90.05
9969;BME280;5025;48.890;9.278;2023-05-10T07:15:59;98365.06;;;14.01;90.05
9969;BME280;5025;48.890;9.278;2023-05-10T07:18:25;98362.63;;;14.05;90.51
9969;BME280;5025;48.890;9.278;2023-05-10T07:20:51;98362.88;;;14.03;90.31
9969;BME280;5025;48.890;9.278;2023-05-10T07:23:16;98372.75;;;14.14;89.84
9969;BME280;5025;48.890;9.278;2023-05-10T07:25:45;98369.53;;;14.23;89.58
9969;BME280;5025;48.890;9.278;2023-05-10T07:28:10;98369.56;;;14.28;89.49
9969;BME280;5025;48.890;9.278;2023-05-10T07:30:35;98376.38;;;14.35;89.07
9969;BME280;5025;48.890;9.278;2023-05-10T07:33:01;98374.00;;;14.39;88.74
9969;BME280;5025;48.890;9.278;2023-05-10T07:35:26;98377.25;;;14.41;88.66
9969;BME280;5025;48.890;9.278;2023-05-10T07:37:51;98373.47;;;14.42;88.50
9969;BME280;5025;48.890;9.278;2023-05-10T07:40:17;98376.19;;;14.47;88.26
9969;BME280;5025;48.890;9.278;2023-05-10T07:42:42;98382.72;;;14.51;87.67
9969;BME280;5025;48.890;9.278;2023-05-10T07:45:08;98382.19;;;14.55;87.68
9969;BME280;5025;48.890;9.278;2023-05-10T07:47:33;98384.09;;;14.54;87.54
9969;BME280;5025;48.890;9.278;2023-05-10T07:49:58;98378.09;;;14.47;87.53
9969;BME280;5025;48.890;9.278;2023-05-10T07:52:23;98391.38;;;14.43;86.86
9969;BME280;5025;48.890;9.278;2023-05-10T07:54:49;98380.69;;;14.26;84.33
9969;BME280;5025;48.890;9.278;2023-05-10T07:57:14;98379.34;;;14.24;84.37
9969;BME280;5025;48.890;9.278;2023-05-10T07:59:42;98383.44;;;14.31;84.43
9969;BME280;5025;48.890;9.278;2023-05-10T08:02:07;98388.13;;;14.41;84.26
9969;BME280;5025;48.890;9.278;2023-05-10T08:04:33;98389.97;;;14.35;84.66
9969;BME280;5025;48.890;9.278;2023-05-10T08:06:58;98384.84;;;14.39;84.89
9969;BME280;5025;48.890;9.278;2023-05-10T08:09:23;98392.69;;;14.35;84.04
9969;BME280;5025;48.890;9.278;2023-05-10T08:11:49;98391.88;;;14.30;82.67
9969;BME280;5025;48.890;9.278;2023-05-10T08:14:15;98387.47;;;14.24;82.19
9969;BME280;5025;48.890;9.278;2023-05-10T08:16:41;98388.00;;;14.21;82.59
9969;BME280;5025;48.890;9.278;2023-05-10T08:19:06;98389.34;;;14.18;81.23
9969;BME280;5025;48.890;9.278;2023-05-10T08:21:31;98393.38;;;14.15;80.99
9969;BME280;5025;48.890;9.278;2023-05-10T08:23:57;98396.09;;;14.15;81.17
9969;BME280;5025;48.890;9.278;2023-05-10T08:26:22;98400.69;;;14.10;79.49
9969;BME280;5025;48.890;9.278;2023-05-10T08:28:48;98394.69;;;14.08;77.72
9969;BME280;5025;48.890;9.278;2023-05-10T08:31:13;98396.06;;;14.05;77.94
9969;BME280;5025;48.890;9.278;2023-05-10T08:33:38;98398.97;;;13.98;75.87
9969;BME280;5025;48.890;9.278;2023-05-10T08:36:04;98406.56;;;13.96;75.84
9969;BME280;5025;48.890;9.278;2023-05-10T08:38:29;98403.03;;;13.96;75.24
9969;BME280;5025;48.890;9.278;2023-05-10T08:40:55;98395.69;;;13.91;74.50
9969;BME280;5025;48.890;9.278;2023-05-10T08:43:22;98401.66;;;13.93;74.80
9969;BME280;5025;48.890;9.278;2023-05-10T08:45:53;98405.22;;;13.99;74.75
9969;BME280;5025;48.890;9.278;2023-05-10T08:48:19;98413.97;;;14.06;75.22
9969;BME280;5025;48.890;9.278;2023-05-10T08:50:48;98404.78;;;14.12;74.84
9969;BME280;5025;48.890;9.278;2023-05-10T08:53:14;98415.38;;;14.14;75.65
9969;BME280;5025;48.890;9.278;2023-05-10T08:55:40;98405.34;;;14.14;75.75
9969;BME280;5025;48.890;9.278;2023-05-10T08:58:07;98415.09;;;14.10;75.05
9969;BME280;5025;48.890;9.278;2023-05-10T09:00:33;98416.72;;;14.11;74.58
9969;BME280;5025;48.890;9.278;2023-05-10T09:02:59;98409.69;;;14.15;75.38
9969;BME280;5025;48.890;9.278;2023-05-10T09:05:24;98408.59;;;14.16;75.90
9969;BME280;5025;48.890;9.278;2023-05-10T09:07:50;98415.44;;;14.24;76.67
9969;BME280;5025;48.890;9.278;2023-05-10T09:10:15;98423.88;;;14.28;76.64
9969;BME280;5025;48.890;9.278;2023-05-10T09:12:41;98423.66;;;14.34;75.12
9969;BME280;5025;48.890;9.278;2023-05-10T09:15:09;98420.72;;;14.41;75.09
9969;BME280;5025;48.890;9.278;2023-05-10T09:17:35;98417.22;;;14.46;74.63
9969;BME280;5025;48.890;9.278;2023-05-10T09:20:03;98423.19;;;14.48;73.24
9969;BME280;5025;48.890;9.278;2023-05-10T09:22:30;98436.25;;;14.51;71.59
9969;BME280;5025;48.890;9.278;2023-05-10T09:25:14;98425.47;;;14.61;72.18
9969;BME280;5025;48.890;9.278;2023-05-10T09:27:41;98431.25;;;14.80;71.79
9969;BME280;5025;48.890;9.278;2023-05-10T09:30:10;98429.13;;;14.87;71.33
9969;BME280;5025;48.890;9.278;2023-05-10T09:32:39;98435.63;;;14.81;69.52
9969;BME280;5025;48.890;9.278;2023-05-10T09:35:13;98447.56;;;14.80;69.60
9969;BME280;5025;48.890;9.278;2023-05-10T09:37:39;98438.31;;;14.76;69.84
9969;BME280;5025;48.890;9.278;2023-05-10T09:40:07;98440.75;;;14.78;71.20
9969;BME280;5025;48.890;9.278;2023-05-10T09:42:34;98435.31;;;14.78;71.97
9969;BME280;5025;48.890;9.278;2023-05-10T09:45:03;98437.78;;;14.79;72.72
9969;BME280;5025;48.890;9.278;2023-05-10T09:47:29;98439.50;;;15.01;72.04
9969;BME280;5025;48.890;9.278;2023-05-10T09:49:55;98436.78;;;15.01;71.09
9969;BME280;5025;48.890;9.278;2023-05-10T09:52:27;98436.25;;;15.04;72.82
9969;BME280;5025;48.890;9.278;2023-05-10T09:54:53;98433.56;;;15.19;72.29
9969;BME280;5025;48.890;9.278;2023-05-10T09:57:23;98437.13;;;15.20;70.14
9969;BME280;5025;48.890;9.278;2023-05-10T09:59:49;98437.66;;;15.22;71.29
9969;BME280;5025;48.890;9.278;2023-05-10T10:02:16;98438.25;;;15.29;70.54
9969;BME280;5025;48.890;9.278;2023-05-10T10:04:42;98437.97;;;15.31;69.40
9969;BME280;5025;48.890;9.278;2023-05-10T10:07:07;98437.41;;;15.23;69.37
9969;BME280;5025;48.890;9.278;2023-05-10T10:09:33;98442.25;;;15.16;70.95
9969;BME280;5025;48.890;9.278;2023-05-10T10:12:00;98433.56;;;15.14;70.83
9969;BME280;5025;48.890;9.278;2023-05-10T10:14:26;98441.13;;;15.02;70.53
9969;BME280;5025;48.890;9.278;2023-05-10T10:16:52;98451.41;;;14.90;70.29
9969;BME280;5025;48.890;9.278;2023-05-10T10:19:18;98442.19;;;14.91;71.20
9969;BME280;5025;48.890;9.278;2023-05-10T10:21:44;98431.84;;;14.87;71.30
9969;BME280;5025;48.890;9.278;2023-05-10T10:24:09;98436.50;;;14.92;71.48
9969;BME280;5025;48.890;9.278;2023-05-10T10:26:35;98435.91;;;14.90;70.37
9969;BME280;5025;48.890;9.278;2023-05-10T10:29:25;98433.72;;;14.87;70.72
9969;BME280;5025;48.890;9.278;2023-05-10T10:32:09;98431.00;;;14.82;70.20
9969;BME280;5025;48.890;9.278;2023-05-10T10:34:38;98438.88;;;14.83;71.20
9969;BME280;5025;48.890;9.278;2023-05-10T10:37:05;98438.88;;;14.83;71.52
9969;BME280;5025;48.890;9.278;2023-05-10T10:39:31;98429.41;;;14.91;71.36
9969;BME280;5025;48.890;9.278;2023-05-10T10:41:58;98438.44;;;15.07;71.25
9969;BME280;5025;48.890;9.278;2023-05-10T10:49:24;98435.97;;;14.95;67.25
9969;BME280;5025;48.890;9.278;2023-05-10T10:54:40;98443.00;;;14.91;65.42
9969;BME280;5025;48.890;9.278;2023-05-10T10:57:13;98474.28;;;14.94;66.37
9969;BME280;5025;48.890;9.278;2023-05-10T10:59:42;98450.88;;;14.93;65.86
9969;BME280;5025;48.890;9.278;2023-05-10T11:02:09;98447.59;;;14.85;65.99
9969;BME280;5025;48.890;9.278;2023-05-10T11:04:41;98457.38;;;14.81;66.30
9969;BME280;5025;48.890;9.278;2023-05-10T11:07:17;98439.97;;;14.82;67.27
9969;BME280;5025;48.890;9.278;2023-05-10T11:09:43;98453.56;;;14.82;67.53
9969;BME280;5025;48.890;9.278;2023-05-10T11:12:08;98455.44;;;14.77;68.72
9969;BME280;5025;48.890;9.278;2023-05-10T11:14:34;98447.50;;;14.70;65.25
9969;BME280;5025;48.890;9.278;2023-05-10T11:17:00;98463.81;;;14.70;65.22
9969;BME280;5025;48.890;9.278;2023-05-10T11:19:27;98452.41;;;14.73;64.48
9969;BME280;5025;48.890;9.278;2023-05-10T11:22:12;98460.34;;;14.80;65.79
9969;BME280;5025;48.890;9.278;2023-05-10T11:24:38;98457.91;;;14.83;64.97
9969;BME280;5025;48.890;9.278;2023-05-10T11:27:04;98452.47;;;14.78;61.75
9969;BME280;5025;48.890;9.278;2023-05-10T11:29:30;98453.81;;;14.81;61.25
9969;BME280;5025;48.890;9.278;2023-05-10T11:31:59;98460.34;;;14.80;61.51
9969;BME280;5025;48.890;9.278;2023-05-10T11:34:29;98464.94;;;14.79;63.51
9969;BME280;5025;48.890;9.278;2023-05-10T11:36:56;98467.72;;;14.90;63.44
9969;BME280;5025;48.890;9.278;2023-05-10T11:39:26;98453.06;;;14.96;64.40
9969;BME280;5025;48.890;9.278;2023-05-10T11:41:51;98455.06;;;15.11;64.55
9969;BME280;5025;48.890;9.278;2023-05-10T11:44:17;98461.34;;;15.32;64.38
9969;BME280;5025;48.890;9.278;2023-05-10T11:46:42;98455.16;;;15.41;64.18
9969;BME280;5025;48.890;9.278;2023-05-10T11:49:07;98452.16;;;15.53;64.12
9969;BME280;5025;48.890;9.278;2023-05-10T11:51:34;98456.25;;;15.51;62.87
9969;BME280;5025;48.890;9.278;2023-05-10T11:54:08;98456.50;;;15.44;63.34
9969;BME280;5025;48.890;9.278;2023-05-10T11:56:34;98463.88;;;15.54;64.08
9969;BME280;5025;48.890;9.278;2023-05-10T11:58:59;98472.28;;;15.47;64.65
9969;BME280;5025;48.890;9.278;2023-05-10T12:01:27;98467.94;;;15.46;63.67
9969;BME280;5025;48.890;9.278;2023-05-10T12:03:54;98469.28;;;15.38;60.78
9969;BME280;5025;48.890;9.278;2023-05-10T12:06:20;98464.06;;;15.32;60.45
9969;BME280;5025;48.890;9.278;2023-05-10T12:08:47;98470.03;;;15.23;59.85
9969;BME280;5025;48.890;9.278;2023-05-10T12:11:13;98470.84;;;15.19;60.19
9969;BME280;5025;48.890;9.278;2023-05-10T12:13:42;98481.19;;;15.22;60.25
9969;BME280;5025;48.890;9.278;2023-05-10T12:16:16;98478.22;;;15.23;59.96
9969;BME280;5025;48.890;9.278;2023-05-10T12:18:42;98467.88;;;15.26;60.48
9969;BME280;5025;48.890;9.278;2023-05-10T12:21:11;98490.69;;;15.19;59.02
9969;BME280;5025;48.890;9.278;2023-05-10T12:23:40;98484.44;;;15.19;59.13
9969;BME280;5025;48.890;9.278;2023-05-10T12:26:06;98481.44;;;15.15;59.88
9969;BME280;5025;48.890;9.278;2023-05-10T12:28:33;98487.69;;;15.11;58.28
9969;BME280;5025;48.890;9.278;2023-05-10T12:30:59;98485.75;;;15.06;58.40
9969;BME280;5025;48.890;9.278;2023-05-10T12:33:25;98517.25;;;14.97;60.40
9969;BME280;5025;48.890;9.278;2023-05-10T12:35:52;98509.31;;;14.85;61.46
9969;BME280;5025;48.890;9.278;2023-05-10T12:40:56;98501.91;;;14.75;56.93
9969;BME280;5025;48.890;9.278;2023-05-10T12:43:21;98498.69;;;14.78;58.03
9969;BME280;5025;48.890;9.278;2023-05-10T12:45:47;98492.66;;;14.76;57.12
9969;BME280;5025;48.890;9.278;2023-05-10T12:48:14;98502.44;;;14.72;57.10
9969;BME280;5025;48.890;9.278;2023-05-10T12:50:39;98507.63;;;14.79;57.37
9969;BME280;5025;48.890;9.278;2023-05-10T12:53:04;98511.75;;;14.86;56.99
9969;BME280;5025;48.890;9.278;2023-05-10T12:55:30;98509.28;;;14.80;56.56
9969;BME280;5025;48.890;9.278;2023-05-10T12:57:55;98507.88;;;14.72;57.17
9969;BME280;5025;48.890;9.278;2023-05-10T13:00:20;98505.19;;;14.77;57.80
9969;BME280;5025;48.890;9.278;2023-05-10T13:02:45;98505.78;;;14.84;57.49
9969;BME280;5025;48.890;9.278;2023-05-10T13:05:11;98505.78;;;14.90;57.77
9969;BME280;5025;48.890;9.278;2023-05-10T13:07:38;98506.94;;;14.99;57.34
9969;BME280;5025;48.890;9.278;2023-05-10T13:10:03;98496.59;;;14.96;57.34
9969;BME280;5025;48.890;9.278;2023-05-10T13:12:28;98501.25;;;15.05;57.97
9969;BME280;5025;48.890;9.278;2023-05-10T13:14:54;98498.25;;;15.07;57.85
9969;BME280;5025;48.890;9.278;2023-05-10T13:17:19;98500.44;;;15.05;58.00
9969;BME280;5025;48.890;9.278;2023-05-10T13:19:44;98494.53;;;15.18;58.16
9969;BME280;5025;48.890;9.278;2023-05-10T13:22:10;98494.84;;;15.32;58.63
9969;BME280;5025;48.890;9.278;2023-05-10T13:24:35;98489.63;;;15.26;57.88
9969;BME280;5025;48.890;9.278;2023-05-10T13:27:00;98496.97;;;15.25;57.81
9969;BME280;5025;48.890;9.278;2023-05-10T13:29:25;98488.56;;;15.32;58.15
9969;BME280;5025;48.890;9.278;2023-05-10T13:31:51;98500.56;;;15.36;59.05
9969;BME280;5025;48.890;9.278;2023-05-10T13:34:16;98492.13;;;15.32;59.09
9969;BME280;5025;48.890;9.278;2023-05-10T13:36:45;98492.88;;;15.22;56.87
9969;BME280;5025;48.890;9.278;2023-05-10T13:39:10;98485.25;;;15.14;58.18
9969;BME280;5025;48.890;9.278;2023-05-10T13:41:35;98493.41;;;15.19;58.92